Terminal Aerodrome Forecast
Issued by NWS

Home | Current Version | Previous Version | Text Only | Print | Product List | Glossary On
Versions: 1 2 3 4 5 6 7 8 9 10 11 12 13 14 15 16 17 18
989
FTUS44 KBMX 200520
TAFANB
TAF
KANB 200520Z 2006/2106 00000KT P6SM SKC
     FM201500 08003KT P6SM SKC
     FM201900 14005KT P6SM SKC
     FM210000 06003KT P6SM SCT250=

USA.gov is the U.S. government's official web portal to all federal, state and local government web resources and services.